Time;durP1;ratioP1;P1;durP2;ratioP2;P2;SDS_P1;SDS_P2;PMS_P1;PMS_P2;Temp;Humidity;BMP_temperature;BMP_pressure;BME280_temperature;BME280_humidity;BME280_pressure;Samples;Min_cycle;Max_cycle;Signal;HPM_P1;HPM_P2
2021/01/03 00:01:15;;;;;;;;;;;;;;;16.50;58.74;100126.50;4912075;29;1048;-66
2021/01/03 00:03:46;;;;;;;;;;;;;;;16.51;58.58;100125.53;4912144;29;1910;-64
2021/01/03 00:06:13;;;;;;;;;;;;;;;16.53;58.82;100124.53;4912323;29;1132;-64
2021/01/03 00:08:40;;;;;;;;;;;;;;;16.51;59.21;100134.28;4912096;29;1313;-65
2021/01/03 00:11:06;;;;;;;;;;;;;;;16.49;59.20;100132.66;4894803;29;1263;-66
2021/01/03 00:13:32;;;;;;;;;;;;;;;16.50;58.70;100135.22;4911991;29;1234;-65
2021/01/03 00:16:01;;;;;;;;;;;;;;;16.47;58.35;100134.53;4912144;29;1091;-65
2021/01/03 00:18:28;;;;;;;;;;;;;;;16.53;57.93;100140.31;4911656;29;1238;-65
2021/01/03 00:21:00;;;;;;;;;;;;;;;16.49;58.16;100140.56;4894660;29;1120;-66
2021/01/03 00:23:29;;;;;;;;;;;;;;;16.45;58.02;100128.50;4912073;29;1980;-65
2021/01/03 00:25:55;;;;;;;;;;;;;;;16.41;57.72;100127.88;4911373;29;1093;-65
2021/01/03 00:28:22;;;;;;;;;;;;;;;16.42;58.03;100125.13;4911903;29;1349;-64
2021/01/03 00:30:48;;;;;;;;;;;;;;;16.40;58.16;100140.16;4894672;29;1219;-65
2021/01/03 00:33:17;;;;;;;;;;;;;;;16.36;58.17;100138.63;4894389;29;1348;-64
2021/01/03 00:35:46;;;;;;;;;;;;;;;16.35;57.74;100130.84;4911968;29;1058;-65
2021/01/03 00:38:13;;;;;;;;;;;;;;;16.35;57.53;100139.53;4911141;29;1261;-65
2021/01/03 00:40:40;;;;;;;;;;;;;;;16.36;57.53;100132.50;4911889;29;1111;-65
2021/01/03 00:43:23;;;;;;;;;;;;;;;16.35;57.37;100141.34;4911210;29;1906;-65
2021/01/03 00:45:50;;;;;;;;;;;;;;;16.34;57.59;100134.38;4911014;29;1073;-65
2021/01/03 00:48:19;;;;;;;;;;;;;;;16.28;57.49;100125.06;4911264;29;1214;-68
2021/01/03 00:50:47;;;;;;;;;;;;;;;16.30;58.20;100127.59;4895538;29;1336;-63
2021/01/03 00:53:13;;;;;;;;;;;;;;;16.26;57.60;100134.81;4894876;29;1235;-65
2021/01/03 00:55:53;;;;;;;;;;;;;;;16.27;57.74;100139.13;4911851;29;1111;-64
2021/01/03 00:58:20;;;;;;;;;;;;;;;16.27;57.68;100131.25;4911807;29;1226;-65
2021/01/03 01:01:24;;;;;;;;;;;;;;;16.20;57.46;100127.25;4911706;29;1339;-67
2021/01/03 01:04:11;;;;;;;;;;;;;;;16.23;57.30;100121.03;4904560;29;1992;-66
2021/01/03 01:06:37;;;;;;;;;;;;;;;16.16;57.23;100128.38;4913324;29;1288;-65
2021/01/03 01:09:04;;;;;;;;;;;;;;;16.18;57.42;100128.28;4915236;29;778;-62
2021/01/03 01:11:30;;;;;;;;;;;;;;;16.25;57.67;100129.66;4914869;29;1510;-64
2021/01/03 01:13:56;;;;;;;;;;;;;;;16.16;56.95;100135.41;4915549;29;1037;-65
2021/01/03 01:16:23;;;;;;;;;;;;;;;16.19;57.60;100127.38;4914992;29;1027;-65
2021/01/03 01:19:06;;;;;;;;;;;;;;;16.17;57.07;100124.81;4914565;29;808;-65
2021/01/03 01:24:01;;;;;;;;;;;;;;;16.23;56.83;100126.28;4909291;23;1973;-65
2021/01/03 01:26:36;;;;;;;;;;;;;;;16.19;56.86;100130.00;4859056;29;1155;-66
2021/01/03 01:29:08;;;;;;;;;;;;;;;16.12;57.10;100132.09;4837797;29;1177;-65
2021/01/03 01:31:34;;;;;;;;;;;;;;;16.11;57.35;100133.03;4840497;29;1290;-64
2021/01/03 01:34:00;;;;;;;;;;;;;;;16.13;56.80;100132.97;4829914;29;1140;-65
2021/01/03 01:36:26;;;;;;;;;;;;;;;16.13;57.19;100131.19;4840373;29;944;-63
2021/01/03 01:38:56;;;;;;;;;;;;;;;16.15;57.24;100133.72;4840497;29;1302;-64
2021/01/03 01:41:22;;;;;;;;;;;;;;;16.09;57.21;100134.06;4840491;29;880;-66
2021/01/03 01:43:49;;;;;;;;;;;;;;;16.02;56.82;100127.47;4840689;29;1895;-64
2021/01/03 01:46:37;;;;;;;;;;;;;;;16.06;56.84;100128.97;4840206;29;973;-66
2021/01/03 01:49:14;;;;;;;;;;;;;;;16.06;56.73;100129.81;4839786;29;1077;-65
2021/01/03 01:51:51;;;;;;;;;;;;;;;16.03;57.11;100129.13;4828385;29;1719;-64
2021/01/03 01:54:50;;;;;;;;;;;;;;;15.99;56.32;100130.25;4782607;30;921;-65
2021/01/03 01:57:16;;;;;;;;;;;;;;;16.06;56.68;100140.34;4782872;30;1243;-65
2021/01/03 01:59:51;;;;;;;;;;;;;;;15.99;56.42;100140.78;4782565;30;915;-65
2021/01/03 02:02:23;;;;;;;;;;;;;;;16.01;56.00;100144.16;4781930;29;1911;-64
2021/01/03 02:04:58;;;;;;;;;;;;;;;15.99;56.44;100148.66;4782666;30;2200;-65
2021/01/03 02:07:53;;;;;;;;;;;;;;;16.06;56.39;100140.34;4782374;29;1287;-66
2021/01/03 02:10:31;;;;;;;;;;;;;;;16.00;56.74;100140.66;4781683;30;1083;-64
2021/01/03 02:13:20;;;;;;;;;;;;;;;16.02;56.77;100141.41;4782050;30;1374;-63
2021/01/03 02:15:47;;;;;;;;;;;;;;;15.95;56.45;100140.09;4775702;30;1309;-65
2021/01/03 02:18:14;;;;;;;;;;;;;;;15.99;56.80;100143.41;4797399;29;1318;-64
2021/01/03 02:20:55;;;;;;;;;;;;;;;15.95;56.04;100149.75;4857924;29;1012;-65
2021/01/03 02:23:47;;;;;;;;;;;;;;;16.06;56.53;100137.72;4857450;29;2004;-64
2021/01/03 02:26:15;;;;;;;;;;;;;;;15.95;55.99;100147.09;4821529;29;1534;-64
2021/01/03 02:28:45;;;;;;;;;;;;;;;15.93;56.17;100141.09;4857579;29;1242;-65
2021/01/03 02:31:13;;;;;;;;;;;;;;;15.91;56.40;100142.94;4857306;29;856;-64
2021/01/03 02:33:42;;;;;;;;;;;;;;;15.94;56.19;100145.41;4857451;29;1231;-64
2021/01/03 02:36:32;;;;;;;;;;;;;;;15.90;56.36;100141.28;4856975;29;1175;-64
2021/01/03 02:39:14;;;;;;;;;;;;;;;15.84;55.79;100145.91;4849124;29;1041;-68
2021/01/03 02:42:02;;;;;;;;;;;;;;;;;;;;;
2021/01/03 02:44:28;;;;;;;;;;;;;;;15.98;55.77;100147.78;4840611;29;863;-65
2021/01/03 02:46:55;;;;;;;;;;;;;;;15.94;55.85;100145.41;4857713;29;1294;-66
2021/01/03 02:49:27;;;;;;;;;;;;;;;15.84;55.36;100142.44;4858352;29;797;-63
2021/01/03 02:51:54;;;;;;;;;;;;;;;15.92;55.36;100147.28;4840013;29;1391;-63
2021/01/03 02:54:20;;;;;;;;;;;;;;;15.80;55.26;100154.91;4857253;29;818;-64
2021/01/03 02:56:49;;;;;;;;;;;;;;;15.84;56.01;100156.41;4857400;29;1270;-63
2021/01/03 02:59:18;;;;;;;;;;;;;;;15.83;55.57;100144.22;4856806;29;789;-64
2021/01/03 03:01:47;;;;;;;;;;;;;;;15.89;55.54;100142.19;4857417;29;1403;-65
2021/01/03 03:04:13;;;;;;;;;;;;;;;15.89;55.59;100153.56;4870799;29;1979;-62
2021/01/03 03:06:39;;;;;;;;;;;;;;;15.79;55.35;100155.81;4856381;29;1262;-64
2021/01/03 03:09:24;;;;;;;;;;;;;;;15.87;55.98;100151.94;4856765;29;895;-65
2021/01/03 03:12:05;;;;;;;;;;;;;;;15.74;55.37;100144.72;4830314;29;1317;-63
2021/01/03 03:14:32;;;;;;;;;;;;;;;15.76;55.79;100152.50;4856683;29;1030;-65
2021/01/03 03:16:58;;;;;;;;;;;;;;;15.83;55.32;100144.22;4857090;29;1589;-64
2021/01/03 03:19:26;;;;;;;;;;;;;;;15.81;55.69;100143.44;4857030;29;855;-63
2021/01/03 03:21:52;;;;;;;;;;;;;;;15.76;55.93;100144.63;4856980;29;1396;-64
2021/01/03 03:24:20;;;;;;;;;;;;;;;15.71;55.44;100144.91;4856282;29;1978;-66
2021/01/03 03:26:53;;;;;;;;;;;;;;;15.78;55.55;100140.13;4854736;29;1274;-64
2021/01/03 03:29:23;;;;;;;;;;;;;;;15.70;55.47;100127.44;4856195;29;812;-63
2021/01/03 03:31:50;;;;;;;;;;;;;;;15.71;55.33;100134.38;4856578;29;1247;-64
2021/01/03 03:37:10;;;;;;;;;;;;;;;15.68;56.15;100134.56;4855840;29;1669;-64
2021/01/03 03:39:37;;;;;;;;;;;;;;;15.68;55.72;100137.19;4856407;29;820;-64
2021/01/03 03:42:04;;;;;;;;;;;;;;;15.70;55.42;100132.69;4838981;29;1815;-63
2021/01/03 03:44:31;;;;;;;;;;;;;;;15.67;55.48;100135.47;4856380;29;923;-64
2021/01/03 03:46:59;;;;;;;;;;;;;;;15.63;55.62;100139.19;4856573;29;1222;-64
2021/01/03 03:49:25;;;;;;;;;;;;;;;15.59;55.46;100128.94;4856328;29;792;-63
2021/01/03 03:51:55;;;;;;;;;;;;;;;15.58;55.71;100137.75;4864357;29;1479;-64
2021/01/03 03:54:22;;;;;;;;;;;;;;;15.62;56.31;100140.13;4874247;29;764;-64
2021/01/03 03:56:56;;;;;;;;;;;;;;;15.65;55.72;100141.75;4874353;29;1328;-65
2021/01/03 03:59:23;;;;;;;;;;;;;;;15.62;55.71;100144.53;4874752;29;796;-63
2021/01/03 04:01:53;;;;;;;;;;;;;;;15.58;55.91;100141.22;4873271;29;1715;-64
2021/01/03 04:04:22;;;;;;;;;;;;;;;15.61;55.81;100133.19;4874593;29;1907;-65
2021/01/03 04:06:49;;;;;;;;;;;;;;;15.56;55.75;100156.22;4874970;29;1226;-65
2021/01/03 04:09:15;;;;;;;;;;;;;;;15.63;55.70;100141.81;4874305;29;1079;-65
2021/01/03 04:11:45;;;;;;;;;;;;;;;15.60;55.79;100149.84;4874427;29;1254;-64
2021/01/03 04:14:12;;;;;;;;;;;;;;;15.58;55.76;100159.59;4874505;29;1076;-64
2021/01/03 04:16:49;;;;;;;;;;;;;;;15.59;55.54;100160.44;4858303;29;1332;-64
2021/01/03 04:19:16;;;;;;;;;;;;;;;15.56;55.66;100157.97;4874444;29;1061;-65
2021/01/03 04:21:42;;;;;;;;;;;;;;;15.58;56.03;100159.59;4874289;29;1313;-63
2021/01/03 04:24:09;;;;;;;;;;;;;;;15.50;55.92;100166.19;4873813;29;1956;-63
2021/01/03 04:26:42;;;;;;;;;;;;;;;15.55;56.22;100174.66;4873925;29;1258;-63
2021/01/03 04:29:09;;;;;;;;;;;;;;;15.53;55.66;100176.53;4873611;29;1048;-63
2021/01/03 04:31:35;;;;;;;;;;;;;;;15.52;56.26;100174.81;4856715;29;1324;-63
2021/01/03 04:34:01;;;;;;;;;;;;;;;15.52;55.53;100175.66;4872280;29;1563;-64
2021/01/03 04:36:30;;;;;;;;;;;;;;;15.51;55.96;100176.59;4873738;29;1007;-64
2021/01/03 04:38:59;;;;;;;;;;;;;;;15.47;55.77;100161.06;4874016;29;1116;-64
2021/01/03 04:41:28;;;;;;;;;;;;;;;15.46;56.25;100175.94;4874209;29;850;-64
2021/01/03 04:43:59;;;;;;;;;;;;;;;15.36;55.98;100158.97;4874178;29;1984;-64
2021/01/03 04:46:43;;;;;;;;;;;;;;;15.52;55.99;100174.81;4873696;29;1223;-64
2021/01/03 04:49:15;;;;;;;;;;;;;;;15.47;55.78;100172.41;4865794;29;1147;-64
2021/01/03 04:52:02;;;;;;;;;;;;;;;15.45;55.43;100170.78;4849397;29;1426;-64
2021/01/03 04:54:33;;;;;;;;;;;;;;;15.53;55.51;100169.50;4855099;29;997;-64
2021/01/03 04:57:01;;;;;;;;;;;;;;;15.51;55.78;100168.72;4855194;29;1352;-64
2021/01/03 04:59:48;;;;;;;;;;;;;;;15.51;55.44;100162.59;4854629;29;1004;-64
2021/01/03 05:02:33;;;;;;;;;;;;;;;15.55;55.28;100170.25;4856039;29;1980;-63
2021/01/03 05:05:05;;;;;;;;;;;;;;;15.51;55.74;100175.72;4840001;29;1162;-63
2021/01/03 05:07:34;;;;;;;;;;;;;;;15.52;55.52;100186.16;4856550;29;1278;-64
2021/01/03 05:10:06;;;;;;;;;;;;;;;15.46;56.03;100181.19;4870509;29;1505;-63
2021/01/03 05:12:36;;;;;;;;;;;;;;;15.46;55.39;100181.19;4856575;29;1328;-64
2021/01/03 05:15:10;;;;;;;;;;;;;;;15.45;56.24;100189.13;4856415;29;1057;-64
2021/01/03 05:17:36;;;;;;;;;;;;;;;15.44;55.73;100187.47;4856169;29;1351;-63
2021/01/03 05:20:04;;;;;;;;;;;;;;;15.52;55.51;100190.56;4856608;29;871;-64
2021/01/03 05:22:36;;;;;;;;;;;;;;;15.42;55.60;100184.91;4856283;29;1982;-64
2021/01/03 05:25:06;;;;;;;;;;;;;;;15.49;55.66;100191.56;4856297;29;984;-64
2021/01/03 05:27:33;;;;;;;;;;;;;;;15.47;55.86;100198.66;4856131;29;1231;-63
2021/01/03 05:30:19;;;;;;;;;;;;;;;15.48;55.64;100199.50;4856174;29;1241;-63
2021/01/03 05:32:46;;;;;;;;;;;;;;;15.47;55.14;100201.28;4856275;29;1215;-63
2021/01/03 05:35:19;;;;;;;;;;;;;;;15.47;55.82;100197.81;4856393;29;1137;-63
2021/01/03 05:37:46;;;;;;;;;;;;;;;15.47;55.21;100205.69;4856204;29;1449;-64
2021/01/03 05:40:26;;;;;;;;;;;;;;;15.44;55.35;100197.97;4856309;29;1054;-64
2021/01/03 05:43:11;;;;;;;;;;;;;;;15.48;55.59;100204.75;4856152;29;1907;-64
2021/01/03 05:45:44;;;;;;;;;;;;;;;15.49;55.18;100209.09;4855948;29;1128;-63
2021/01/03 05:48:17;;;;;;;;;;;;;;;15.43;55.09;100207.59;4856350;29;1395;-65
2021/01/03 05:50:46;;;;;;;;;;;;;;;15.43;55.68;100207.59;4869734;29;1121;-64
2021/01/03 05:53:21;;;;;;;;;;;;;;;15.42;55.37;100221.66;4875348;29;1688;-65
2021/01/03 05:55:56;;;;;;;;;;;;;;;15.42;55.41;100224.28;4878180;29;1119;-64
2021/01/03 05:58:26;;;;;;;;;;;;;;;15.43;55.07;100207.59;4877811;29;1246;-64
2021/01/03 06:00:52;;;;;;;;;;;;;;;15.45;55.06;100216.25;4878204;29;1346;-64
2021/01/03 06:03:24;;;;;;;;;;;;;;;15.40;55.02;100218.25;4878111;29;1923;-64
2021/01/03 06:05:54;;;;;;;;;;;;;;;15.39;55.69;100208.69;4877750;29;1127;-63
2021/01/03 06:08:26;;;;;;;;;;;;;;;15.37;55.42;100213.16;4878123;29;1279;-63
2021/01/03 06:10:53;;;;;;;;;;;;;;;15.41;55.23;100225.19;4877772;29;1051;-64
2021/01/03 06:13:23;;;;;;;;;;;;;;;15.39;55.22;100221.81;4877887;29;1242;-64
2021/01/03 06:15:53;;;;;;;;;;;;;;;15.43;54.80;100217.25;4860730;29;1132;-63
2021/01/03 06:18:50;;;;;;;;;;;;;;;15.30;55.28;100217.03;4877753;29;1425;-64
2021/01/03 06:21:20;;;;;;;;;;;;;;;15.38;55.39;100219.28;4877234;29;1567;-65
2021/01/03 06:24:00;;;;;;;;;;;;;;;15.36;55.26;100221.97;4877485;29;1996;-65
2021/01/03 06:26:29;;;;;;;;;;;;;;;15.38;55.43;100227.16;4861317;29;1292;-65
2021/01/03 06:28:55;;;;;;;;;;;;;;;15.39;54.86;100227.06;4878686;29;1187;-65
2021/01/03 06:31:57;;;;;;;;;;;;;;;15.39;55.22;100227.06;4877504;29;1194;-65
2021/01/03 06:34:51;;;;;;;;;;;;;;;15.38;55.36;100229.78;4837783;29;774;-64
2021/01/03 06:37:21;;;;;;;;;;;;;;;15.39;54.91;100239.31;4832099;29;1250;-64
2021/01/03 06:39:54;;;;;;;;;;;;;;;15.38;54.79;100233.22;4872198;29;786;-64
2021/01/03 06:42:32;;;;;;;;;;;;;;;15.41;54.55;100240.94;4877480;29;1230;-66
2021/01/03 06:45:28;;;;;;;;;;;;;;;15.41;54.72;100238.31;4877416;29;1219;-64
2021/01/03 06:48:12;;;;;;;;;;;;;;;15.35;54.89;100241.25;4842040;29;1353;-64
2021/01/03 06:50:58;;;;;;;;;;;;;;;15.38;55.11;100240.28;4891616;29;1096;-65
2021/01/03 06:53:42;;;;;;;;;;;;;;;15.32;55.16;100241.41;4895283;29;1307;-63
2021/01/03 06:56:27;;;;;;;;;;;;;;;15.30;55.11;100252.00;4878505;29;1431;-64
2021/01/03 06:59:05;;;;;;;;;;;;;;;15.32;54.84;100252.75;4895474;29;1262;-65
2021/01/03 07:01:36;;;;;;;;;;;;;;;15.32;54.90;100254.53;4895650;29;1063;-65
2021/01/03 07:04:09;;;;;;;;;;;;;;;15.26;55.15;100258.31;4894377;29;1906;-62
2021/01/03 07:06:36;;;;;;;;;;;;;;;15.29;55.18;100267.81;4895447;29;1238;-64
2021/01/03 07:09:05;;;;;;;;;;;;;;;15.34;55.05;100268.44;4895342;29;969;-65
2021/01/03 07:11:40;;;;;;;;;;;;;;;15.33;55.19;100269.34;4895399;29;1341;-65
2021/01/03 07:14:08;;;;;;;;;;;;;;;15.31;55.40;100271.22;4895256;29;790;-65
2021/01/03 07:16:46;;;;;;;;;;;;;;;15.28;54.92;100271.38;4895226;29;1359;-64
2021/01/03 07:19:15;;;;;;;;;;;;;;;15.29;55.28;100273.03;4895152;29;765;-63
2021/01/03 07:21:42;;;;;;;;;;;;;;;15.30;54.66;100280.00;4895012;29;1286;-63
2021/01/03 07:24:27;;;;;;;;;;;;;;;15.27;55.02;100272.28;4895463;29;1930;-63
2021/01/03 07:27:12;;;;;;;;;;;;;;;15.30;54.75;100278.25;4895132;29;1364;-64
2021/01/03 07:29:58;;;;;;;;;;;;;;;15.28;55.07;100281.88;4894804;29;1189;-64
2021/01/03 07:32:28;;;;;;;;;;;;;;;15.30;55.31;100290.50;4874092;29;1695;-64
2021/01/03 07:34:54;;;;;;;;;;;;;;;15.30;54.65;100287.88;4895107;29;970;-65
2021/01/03 07:37:25;;;;;;;;;;;;;;;15.26;55.02;100289.81;4894699;29;1617;-64
2021/01/03 07:40:08;;;;;;;;;;;;;;;15.20;55.47;100294.50;4894386;29;1550;-66
2021/01/03 07:42:56;;;;;;;;;;;;;;;15.26;55.30;100299.44;4894763;29;1915;-65
2021/01/03 07:45:31;;;;;;;;;;;;;;;15.34;55.04;100297.31;4894921;29;784;-64
2021/01/03 07:47:58;;;;;;;;;;;;;;;15.32;55.37;100300.00;4895212;29;1277;-65
2021/01/03 07:50:30;;;;;;;;;;;;;;;15.34;55.07;100313.06;4894715;29;922;-67
2021/01/03 07:52:58;;;;;;;;;;;;;;;15.33;55.19;100324.47;4894557;29;1352;-65
2021/01/03 07:55:27;;;;;;;;;;;;;;;15.33;55.42;100321.84;4893070;29;785;-66
2021/01/03 07:58:14;;;;;;;;;;;;;;;15.31;55.15;100319.31;4894579;29;1388;-66
2021/01/03 08:00:41;;;;;;;;;;;;;;;15.30;55.51;100324.63;4893811;29;1216;-63
2021/01/03 08:03:18;;;;;;;;;;;;;;;15.31;55.16;100339.44;4893717;29;1988;-66
2021/01/03 08:05:44;;;;;;;;;;;;;;;15.29;55.61;100328.16;4893497;29;804;-66
2021/01/03 08:08:16;;;;;;;;;;;;;;;15.28;55.65;100329.09;4893539;29;1226;-66
2021/01/03 08:10:43;;;;;;;;;;;;;;;15.30;55.26;100332.50;4876528;29;1187;-66
2021/01/03 08:13:16;;;;;;;;;;;;;;;15.31;55.47;100331.56;4893067;29;1253;-65
2021/01/03 08:15:42;;;;;;;;;;;;;;;15.28;55.40;100332.59;4893048;29;951;-66
2021/01/03 08:18:12;;;;;;;;;;;;;;;15.28;55.67;100329.97;4893646;29;1325;-65
2021/01/03 08:20:38;;;;;;;;;;;;;;;15.28;55.32;100329.97;4891947;29;942;-66
2021/01/03 08:23:32;;;;;;;;;;;;;;;15.27;55.35;100343.13;4893479;29;1984;-65
2021/01/03 08:26:06;;;;;;;;;;;;;;;15.31;55.49;100340.31;4892216;29;1210;-65
2021/01/03 08:28:35;;;;;;;;;;;;;;;15.28;55.13;100344.84;4893540;29;1317;-66
2021/01/03 08:31:01;;;;;;;;;;;;;;;15.28;55.01;100342.22;4893092;29;1019;-67
2021/01/03 08:33:36;;;;;;;;;;;;;;;14.44;47.20;100347.13;4893663;29;1238;-66
2021/01/03 08:39:09;;;;;;;;;;;;;;;14.47;47.29;100354.84;4899105;23;1599;-65
2021/01/03 08:41:49;;;;;;;;;;;;;;;14.71;51.77;100358.97;4874809;29;1319;-67
2021/01/03 08:44:31;;;;;;;;;;;;;;;14.89;52.75;100357.25;4874975;29;1968;-67
2021/01/03 08:47:16;;;;;;;;;;;;;;;14.95;52.48;100346.47;4881011;23;1668;-67
2021/01/03 08:53:23;;;;;;;;;;;;;;;15.33;51.25;100363.84;4830738;29;1349;-68
2021/01/03 08:56:18;;;;;;;;;;;;;;;15.55;50.56;100363.66;4855179;29;1101;-67
2021/01/03 08:58:47;;;;;;;;;;;;;;;15.72;50.26;100368.91;4856502;29;1306;-67
2021/01/03 09:04:59;;;;;;;;;;;;;;;15.95;50.63;100368.63;4846184;29;1907;-68
2021/01/03 09:07:49;;;;;;;;;;;;;;;16.13;49.64;100372.94;4866510;29;1290;-67
2021/01/03 09:10:35;;;;;;;;;;;;;;;16.29;50.90;100367.72;4854854;29;1247;-67
2021/01/03 09:13:19;;;;;;;;;;;;;;;16.45;50.64;100363.34;4856351;29;1264;-64
2021/01/03 09:15:54;;;;;;;;;;;;;;;16.57;49.27;100370.59;4856729;29;1073;-67
2021/01/03 09:18:38;;;;;;;;;;;;;;;16.71;50.12;100367.25;4856516;29;1353;-67
2021/01/03 09:21:20;;;;;;;;;;;;;;;16.85;49.63;100383.13;4855338;29;891;-67
2021/01/03 09:23:48;;;;;;;;;;;;;;;16.95;49.61;100379.06;4855013;29;1951;-66
2021/01/03 09:26:15;;;;;;;;;;;;;;;17.04;49.36;100381.19;4856248;29;871;-66
2021/01/03 09:28:42;;;;;;;;;;;;;;;17.10;49.44;100382.63;4859495;29;1171;-66
2021/01/03 09:31:08;;;;;;;;;;;;;;;17.13;49.31;100375.41;4860165;29;926;-68
2021/01/03 09:33:38;;;;;;;;;;;;;;;17.24;49.06;100385.31;4859687;29;1286;-67
2021/01/03 09:36:11;;;;;;;;;;;;;;;17.29;49.48;100383.28;4859358;29;1587;-65
2021/01/03 09:38:38;;;;;;;;;;;;;;;17.35;49.66;100390.84;4858085;29;1342;-66
2021/01/03 09:41:16;;;;;;;;;;;;;;;17.38;49.66;100388.03;4859287;29;1110;-69
2021/01/03 09:43:58;;;;;;;;;;;;;;;17.40;49.71;100391.41;4858872;29;1907;-64
2021/01/03 09:46:24;;;;;;;;;;;;;;;17.46;49.83;100391.94;4859695;29;911;-64
2021/01/03 09:48:50;;;;;;;;;;;;;;;17.42;50.37;100382.50;4859725;29;1405;-69
2021/01/03 09:51:34;;;;;;;;;;;;;;;17.43;50.18;100392.09;4858250;29;1187;-69
2021/01/03 09:54:04;;;;;;;;;;;;;;;17.44;50.27;100385.06;4873346;29;1061;-68
2021/01/03 09:56:33;;;;;;;;;;;;;;;17.57;50.33;100390.50;4857714;29;804;-63
2021/01/03 09:59:07;;;;;;;;;;;;;;;17.78;50.14;100384.81;4849118;29;1668;-64
2021/01/03 10:01:34;;;;;;;;;;;;;;;17.65;50.19;100381.22;4859917;29;1467;-71
2021/01/03 10:04:22;;;;;;;;;;;;;;;17.59;50.32;100384.22;4866568;29;1911;-69
2021/01/03 10:07:07;;;;;;;;;;;;;;;17.57;50.21;100391.34;4854823;29;1238;-71
2021/01/03 10:09:36;;;;;;;;;;;;;;;17.53;50.70;100381.91;4858712;29;1025;-69
2021/01/03 10:12:19;;;;;;;;;;;;;;;17.46;50.75;100384.03;4856476;29;1265;-73
2021/01/03 10:15:07;;;;;;;;;;;;;;;17.40;50.99;100387.00;4858653;29;1289;-77
2021/01/03 10:18:30;;;;;;;;;;;;;;;17.45;50.53;100377.06;4834187;29;1187;-72
2021/01/03 10:24:33;;;;;;;;;;;;;;;17.57;51.45;100372.06;4960738;23;2130;-76
2021/01/03 10:27:32;;;;;;;;;;;;;;;17.61;54.32;100373.56;4874347;29;1300;-71
2021/01/03 10:29:59;;;;;;;;;;;;;;;17.68;55.91;100370.50;4876192;29;914;-72
2021/01/03 10:32:46;;;;;;;;;;;;;;;17.75;56.15;100369.19;4876403;29;1441;-70
2021/01/03 10:35:12;;;;;;;;;;;;;;;17.87;55.69;100365.84;4875568;29;1467;-68
2021/01/03 10:37:39;;;;;;;;;;;;;;;17.88;55.66;100364.91;4875687;29;1476;-71
2021/01/03 10:40:06;;;;;;;;;;;;;;;17.85;55.58;100359.81;4875633;29;816;-71
2021/01/03 10:42:32;;;;;;;;;;;;;;;17.82;55.08;100360.00;4875334;29;1509;-69
2021/01/03 10:44:58;;;;;;;;;;;;;;;17.79;55.16;100359.31;4875549;29;1915;-68
2021/01/03 10:47:25;;;;;;;;;;;;;;;17.74;55.22;100361.41;4875663;29;1344;-71
2021/01/03 10:50:14;;;;;;;;;;;;;;;17.70;55.38;100357.22;4875527;29;761;-76
2021/01/03 10:53:01;;;;;;;;;;;;;;;17.77;55.63;100362.06;4858032;29;1567;-71
2021/01/03 10:55:28;;;;;;;;;;;;;;;17.93;55.82;100349.66;4855468;29;1459;-74
2021/01/03 10:57:57;;;;;;;;;;;;;;;17.82;58.19;100348.59;4856470;29;1227;-74
2021/01/03 11:00:24;;;;;;;;;;;;;;;17.80;58.04;100338.19;4855363;29;1198;-70
2021/01/03 11:02:50;;;;;;;;;;;;;;;17.74;58.21;100333.28;4874912;29;1337;-69
2021/01/03 11:05:17;;;;;;;;;;;;;;;17.73;58.23;100334.19;4874117;29;1148;-68
2021/01/03 11:07:49;;;;;;;;;;;;;;;17.71;58.98;100322.91;4874601;29;1239;-68
2021/01/03 11:10:15;;;;;;;;;;;;;;;17.70;59.08;100329.09;4875849;29;1030;-68
2021/01/03 11:12:42;;;;;;;;;;;;;;;17.65;59.74;100323.28;4876352;29;1297;-70
2021/01/03 11:15:17;;;;;;;;;;;;;;;17.60;59.89;100325.31;4876502;29;1150;-69
2021/01/03 11:17:57;;;;;;;;;;;;;;;17.52;59.08;100310.88;4876553;29;1314;-68
2021/01/03 11:20:30;;;;;;;;;;;;;;;17.46;59.08;100322.63;4874961;29;1142;-69
2021/01/03 11:22:57;;;;;;;;;;;;;;;17.39;60.01;100319.47;4874537;29;1976;-70
2021/01/03 11:25:26;;;;;;;;;;;;;;;17.36;59.81;100318.81;4874225;29;1030;-70
2021/01/03 11:27:55;;;;;;;;;;;;;;;17.30;59.58;100311.25;4874788;29;1305;-70
2021/01/03 11:30:21;;;;;;;;;;;;;;;17.26;59.15;100307.13;4874410;29;796;-70
2021/01/03 11:32:56;;;;;;;;;;;;;;;17.22;59.40;100306.44;4857791;29;1511;-68
2021/01/03 11:35:23;;;;;;;;;;;;;;;17.19;59.96;100300.50;4875854;29;804;-70
2021/01/03 11:37:49;;;;;;;;;;;;;;;17.14;59.46;100299.94;4875576;29;1285;-69
2021/01/03 11:40:16;;;;;;;;;;;;;;;17.10;59.36;100298.41;4876025;29;882;-70
2021/01/03 11:42:42;;;;;;;;;;;;;;;17.06;59.30;100288.97;4859279;29;1368;-69
2021/01/03 11:45:14;;;;;;;;;;;;;;;17.00;59.12;100297.22;4876120;29;1920;-69
2021/01/03 11:47:41;;;;;;;;;;;;;;;16.96;58.87;100296.56;4875943;29;1240;-69
2021/01/03 11:50:08;;;;;;;;;;;;;;;16.90;58.85;100292.47;4875767;29;995;-70
2021/01/03 11:52:34;;;;;;;;;;;;;;;16.88;58.99;100286.47;4875709;29;1301;-69
2021/01/03 11:55:01;;;;;;;;;;;;;;;16.86;59.00;100287.50;4875159;29;1646;-69
2021/01/03 11:57:28;;;;;;;;;;;;;;;16.77;58.31;100274.84;4875770;29;1317;-69
2021/01/03 11:59:54;;;;;;;;;;;;;;;16.73;58.83;100283.84;4858505;29;1200;-69
2021/01/03 12:02:20;;;;;;;;;;;;;;;16.70;58.49;100278.75;4875409;29;1206;-69
2021/01/03 12:04:48;;;;;;;;;;;;;;;16.66;58.67;100272.81;4875695;29;1981;-69
2021/01/03 12:07:16;;;;;;;;;;;;;;;16.57;58.65;100283.81;4875895;29;1294;-69
2021/01/03 12:09:43;;;;;;;;;;;;;;;16.53;58.29;100279.66;4875525;29;832;-70
2021/01/03 12:12:10;;;;;;;;;;;;;;;16.51;58.53;100278.03;4875852;29;1293;-69
2021/01/03 12:14:37;;;;;;;;;;;;;;;16.45;58.14;100268.69;4875642;29;790;-69
2021/01/03 12:17:06;;;;;;;;;;;;;;;16.45;58.00;100271.31;4875775;29;1369;-69
2021/01/03 12:19:32;;;;;;;;;;;;;;;16.34;58.26;100265.81;4858670;29;1863;-69
2021/01/03 12:21:59;;;;;;;;;;;;;;;16.37;58.58;100270.91;4875273;29;1482;-68
2021/01/03 12:24:27;;;;;;;;;;;;;;;16.33;58.80;100272.00;4875304;29;1978;-69
2021/01/03 12:26:53;;;;;;;;;;;;;;;16.32;57.88;100275.56;4875035;29;1258;-69
2021/01/03 12:29:21;;;;;;;;;;;;;;;16.26;58.33;100262.75;4875004;29;726;-69
2021/01/03 12:31:48;;;;;;;;;;;;;;;16.28;58.44;100258.25;4873583;29;1369;-69
2021/01/03 12:34:16;;;;;;;;;;;;;;;16.28;57.80;100250.38;4873476;29;796;-68
2021/01/03 12:36:43;;;;;;;;;;;;;;;16.26;57.83;100250.44;4873709;29;1259;-69
2021/01/03 12:39:10;;;;;;;;;;;;;;;16.20;57.55;100242.06;4874759;29;939;-69
2021/01/03 12:41:37;;;;;;;;;;;;;;;16.23;58.43;100242.72;4875149;29;1279;-69
2021/01/03 12:44:04;;;;;;;;;;;;;;;16.20;57.91;100255.22;4874924;29;1911;-68
2021/01/03 12:46:32;;;;;;;;;;;;;;;16.17;58.22;100247.50;4875602;29;1160;-68
2021/01/03 12:49:01;;;;;;;;;;;;;;;16.14;57.70;100248.47;4874810;29;837;-68
2021/01/03 12:51:27;;;;;;;;;;;;;;;16.11;57.72;100242.56;4875199;29;1124;-68
2021/01/03 12:53:54;;;;;;;;;;;;;;;16.10;57.66;100228.56;4874822;29;1278;-69
2021/01/03 12:56:24;;;;;;;;;;;;;;;16.17;57.99;100235.19;4874798;29;1132;-69
2021/01/03 12:58:55;;;;;;;;;;;;;;;16.11;57.39;100242.56;4857944;29;1360;-69
2021/01/03 13:01:22;;;;;;;;;;;;;;;16.13;57.76;100230.19;4874794;29;1120;-69
2021/01/03 13:03:48;;;;;;;;;;;;;;;16.13;57.68;100230.19;4877842;29;1914;-69
2021/01/03 13:06:14;;;;;;;;;;;;;;;16.09;57.03;100231.28;4878735;29;1299;-69
2021/01/03 13:08:41;;;;;;;;;;;;;;;16.05;58.10;100232.38;4878685;29;1237;-69
2021/01/03 13:11:07;;;;;;;;;;;;;;;16.04;57.37;100225.41;4878585;29;1058;-69
2021/01/03 13:13:34;;;;;;;;;;;;;;;16.03;57.94;100228.97;4878037;29;1341;-69
2021/01/03 13:16:00;;;;;;;;;;;;;;;15.97;57.10;100240.66;4878116;29;1176;-69
2021/01/03 13:18:26;;;;;;;;;;;;;;;16.01;57.48;100230.84;4878200;29;1207;-68
2021/01/03 13:20:53;;;;;;;;;;;;;;;16.02;57.31;100229.91;4878215;29;1121;-69
2021/01/03 13:23:19;;;;;;;;;;;;;;;16.00;57.19;100224.72;4878143;29;1915;-69
2021/01/03 13:25:45;;;;;;;;;;;;;;;15.97;57.06;100224.03;4878163;29;885;-68
2021/01/03 13:28:11;;;;;;;;;;;;;;;15.98;57.01;100231.88;4878261;29;1317;-70
2021/01/03 13:30:38;;;;;;;;;;;;;;;15.99;57.10;100232.72;4878197;29;871;-68
2021/01/03 13:33:05;;;;;;;;;;;;;;;15.96;57.09;100231.06;4878368;29;1301;-70
2021/01/03 13:35:31;;;;;;;;;;;;;;;15.98;56.97;100236.25;4878086;29;816;-66